Time;durP1;ratioP1;P1;durP2;ratioP2;P2;SDS_P1;SDS_P2;PMS_P1;PMS_P2;Temp;Humidity;BMP_temperature;BMP_pressure;BME280_temperature;BME280_humidity;BME280_pressure;Samples;Min_cycle;Max_cycle;Signal;HPM_P1;HPM_P2
2022/01/04 00:03:44;;;;;;;6.05;2.60;;;;;;;6.49;81.77;98208.92;4033088;88;21134;-88
2022/01/04 00:09:45;;;;;;;8.15;1.77;;;;;;;6.60;81.84;98204.98;4031911;87;21407;-89
2022/01/04 00:15:47;;;;;;;3.15;1.10;;;;;;;6.69;81.84;98189.97;4084375;86;21108;-89
2022/01/04 00:21:50;;;;;;;3.15;1.80;;;;;;;6.73;81.87;98181.86;4087864;85;21086;-90
2022/01/04 00:27:51;;;;;;;2.58;1.40;;;;;;;6.74;82.13;98177.41;4089743;86;21046;-90
2022/01/04 00:33:58;;;;;;;3.02;1.40;;;;;;;6.71;82.14;98178.16;3979318;88;21609;-91
2022/01/04 00:39:59;;;;;;;3.67;1.62;;;;;;;6.72;82.27;98180.30;3979839;88;21056;-91
2022/01/04 00:46:02;;;;;;;3.20;1.55;;;;;;;6.71;82.38;98178.72;4032069;87;21824;-89
2022/01/04 00:52:05;;;;;;;5.35;1.55;;;;;;;6.65;82.59;98171.47;4075957;86;21158;-90
2022/01/04 00:58:10;;;;;;;3.27;1.40;;;;;;;6.65;82.93;98166.03;4169945;85;21048;-90
2022/01/04 01:04:12;;;;;;;4.03;2.00;;;;;;;6.62;83.01;98149.09;4167538;84;21608;-89
2022/01/04 01:16:30;;;;;;;4.17;1.65;;;;;;;6.53;83.49;98147.80;4170996;84;21045;-89
2022/01/04 01:22:33;;;;;;;4.45;1.75;;;;;;;6.48;84.04;98145.39;4169854;84;21046;-90
2022/01/04 01:28:36;;;;;;;8.43;2.47;;;;;;;6.44;84.42;98139.90;4169203;84;21058;-89
2022/01/04 01:34:37;;;;;;;4.78;2.17;;;;;;;6.42;85.01;98135.43;4170042;84;21118;-90
2022/01/04 01:40:40;;;;;;;5.33;2.08;;;;;;;6.41;85.49;98117.53;4169995;84;21024;-91
2022/01/04 01:46:42;;;;;;;5.17;2.47;;;;;;;6.34;86.10;98128.33;4167116;84;21055;-90
2022/01/04 01:52:48;;;;;;;4.35;2.20;;;;;;;6.30;86.60;98139.14;4171902;84;21168;-88
2022/01/04 01:58:50;;;;;;;7.50;2.62;;;;;;;6.25;86.76;98131.86;4176415;84;21055;-89
2022/01/04 02:04:51;;;;;;;5.33;2.25;;;;;;;6.21;87.38;98127.77;4175460;84;21022;-91
2022/01/04 02:10:57;;;;;;;5.83;2.50;;;;;;;6.17;87.65;98126.14;4175993;84;21502;-90
2022/01/04 02:16:58;;;;;;;3.58;1.82;;;;;;;6.12;88.05;98130.53;4175021;84;21130;-89
2022/01/04 02:22:59;;;;;;;6.65;2.75;;;;;;;6.09;88.25;98117.08;4173748;84;21539;-91
2022/01/04 02:29:02;;;;;;;4.40;2.22;;;;;;;5.99;88.53;98107.42;4175703;84;21038;-90
2022/01/04 02:35:05;;;;;;;5.60;2.65;;;;;;;5.90;89.41;98100.88;4175146;84;21678;-88
2022/01/04 02:41:06;;;;;;;3.33;2.22;;;;;;;5.85;89.85;98088.99;4174869;84;21038;-88
2022/01/04 02:47:08;;;;;;;5.33;2.62;;;;;;;5.86;90.41;98068.82;4174645;84;21056;-89
2022/01/04 02:53:09;;;;;;;8.03;3.47;;;;;;;5.90;90.46;98071.59;4175920;84;21615;-88
2022/01/04 02:59:11;;;;;;;11.38;4.62;;;;;;;5.90;90.86;98061.49;4175550;84;21063;-92
2022/01/04 03:05:12;;;;;;;6.42;3.42;;;;;;;5.89;90.62;98051.00;4175133;84;21082;-87
2022/01/04 03:11:13;;;;;;;7.75;2.85;;;;;;;5.86;91.34;98036.80;4175538;84;21356;-88
2022/01/04 03:17:15;;;;;;;5.87;2.72;;;;;;;5.86;91.58;98030.80;4175670;84;21016;-87
2022/01/04 03:23:17;;;;;;;5.78;4.08;;;;;;;5.89;91.92;98022.48;4175133;84;21575;-89
2022/01/04 03:29:18;;;;;;;8.38;4.75;;;;;;;5.87;92.00;98001.11;4174587;84;21059;-88
2022/01/04 03:35:20;;;;;;;7.22;3.42;;;;;;;5.89;92.29;97992.03;4175543;84;21633;-87
2022/01/04 03:41:24;;;;;;;6.95;3.40;;;;;;;5.84;92.29;97977.41;4175663;84;21078;-89
2022/01/04 03:47:26;;;;;;;5.92;2.50;;;;;;;5.81;92.04;97980.07;4174093;84;21103;-87
2022/01/04 03:53:27;;;;;;;5.83;2.90;;;;;;;5.71;92.18;97966.55;4189659;83;21054;-87
2022/01/04 03:59:28;;;;;;;3.70;2.25;;;;;;;5.67;92.82;97958.16;4208717;83;21050;-88
2022/01/04 04:05:32;;;;;;;3.80;1.98;;;;;;;5.69;93.06;97944.41;4182595;83;21537;-90
2022/01/04 04:11:33;;;;;;;5.85;2.95;;;;;;;5.70;93.02;97937.05;4207472;83;21142;-88
2022/01/04 04:17:35;;;;;;;6.90;2.72;;;;;;;5.61;92.98;97930.53;4207598;83;21546;-87
2022/01/04 04:23:37;;;;;;;4.95;2.30;;;;;;;5.55;93.35;97924.42;4207209;83;21115;-92
2022/01/04 04:29:38;;;;;;;3.85;2.30;;;;;;;5.54;93.78;97914.16;4207625;83;21227;-88
2022/01/04 04:35:39;;;;;;;37.08;8.15;;;;;;;5.52;93.94;97914.30;4206439;83;21074;-89
2022/01/04 04:41:42;;;;;;;9.15;3.62;;;;;;;5.50;94.47;97915.23;4185400;83;21728;-88
2022/01/04 04:47:43;;;;;;;23.90;7.45;;;;;;;5.45;94.29;97904.72;4206750;83;21163;-89
2022/01/04 04:53:44;;;;;;;25.32;8.58;;;;;;;5.39;95.01;97904.23;4176720;83;21124;-89
2022/01/04 04:59:46;;;;;;;30.32;9.10;;;;;;;5.40;95.16;97892.25;4153974;84;21029;-87
2022/01/04 05:05:49;;;;;;;16.70;6.20;;;;;;;5.41;95.28;97878.09;4151589;84;21092;-88
2022/01/04 05:11:50;;;;;;;16.05;6.45;;;;;;;5.42;95.52;97873.65;4143537;84;21076;-89
2022/01/04 05:17:52;;;;;;;23.98;7.85;;;;;;;5.41;95.56;97870.73;4138439;84;21057;-89
2022/01/04 05:23:54;;;;;;;17.90;6.87;;;;;;;5.40;95.69;97864.33;4150289;84;21064;-88
2022/01/04 05:29:56;;;;;;;12.05;5.75;;;;;;;5.33;95.85;97862.86;4160464;84;21091;-91
2022/01/04 05:35:57;;;;;;;10.90;6.72;;;;;;;5.26;95.85;97857.34;4199644;83;38306;-87
2022/01/04 05:41:58;;;;;;;14.47;6.87;;;;;;;5.13;95.77;97852.72;4209403;83;21121;-89
2022/01/04 05:47:59;;;;;;;11.80;6.12;;;;;;;5.06;96.03;97844.46;4209923;83;21561;-91
2022/01/04 05:54:01;;;;;;;12.63;6.92;;;;;;;5.00;96.14;97840.51;4228827;82;21568;-91
2022/01/04 06:00:06;;;;;;;13.45;7.90;;;;;;;4.97;96.26;97833.67;4243754;82;21561;-89
2022/01/04 06:06:09;;;;;;;12.07;7.70;;;;;;;4.94;96.28;97825.70;4248783;82;21052;-88
2022/01/04 06:18:15;;;;;;;9.35;6.35;;;;;;;4.91;96.56;97812.87;4185609;82;21030;-89
2022/01/04 06:24:16;;;;;;;6.97;4.17;;;;;;;4.92;97.06;97815.78;4255805;82;21045;-90
2022/01/04 06:30:21;;;;;;;6.85;3.27;;;;;;;4.94;97.18;97805.92;4248628;82;21590;-89
2022/01/04 06:36:23;;;;;;;7.25;4.22;;;;;;;4.97;97.43;97797.84;4245550;82;21064;-88
2022/01/04 06:42:24;;;;;;;8.90;4.37;;;;;;;5.05;97.74;97800.87;4249420;82;21052;-89
2022/01/04 06:48:26;;;;;;;5.58;3.33;;;;;;;5.13;98.08;97790.89;4245463;82;21069;-90
2022/01/04 06:54:27;;;;;;;4.45;2.25;;;;;;;5.24;98.66;97783.67;4247702;82;21349;-89
2022/01/04 07:00:29;;;;;;;4.22;2.20;;;;;;;5.40;99.64;97785.62;4250698;82;21053;-89
2022/01/04 07:06:32;;;;;;;7.50;3.08;;;;;;;5.64;99.41;97770.96;4247204;82;21069;-88
2022/01/04 07:12:35;;;;;;;5.08;2.15;;;;;;;5.83;100.00;97765.38;4250852;82;21709;-90
2022/01/04 07:18:36;;;;;;;4.35;1.95;;;;;;;6.02;100.00;97761.67;4251138;82;21366;-89
2022/01/04 07:24:37;;;;;;;4.30;2.05;;;;;;;6.10;100.00;97762.73;4252577;82;21045;-89
2022/01/04 07:30:39;;;;;;;4.22;1.42;;;;;;;6.19;100.00;97764.55;4245293;82;20994;-90
2022/01/04 07:36:40;;;;;;;4.92;2.60;;;;;;;6.29;100.00;97748.14;4249548;82;21565;-89
2022/01/04 07:42:42;;;;;;;3.67;1.92;;;;;;;6.42;100.00;97735.03;4248132;82;21595;-89
2022/01/04 07:48:44;;;;;;;4.33;2.02;;;;;;;6.50;100.00;97717.02;4249703;82;21057;-90
2022/01/04 07:54:45;;;;;;;4.62;2.47;;;;;;;6.63;99.78;97716.91;4248442;82;21049;-89
2022/01/04 08:00:47;;;;;;;3.27;2.15;;;;;;;6.71;99.67;97704.13;4247810;82;21078;-90
2022/01/04 08:06:48;;;;;;;3.70;2.37;;;;;;;6.79;99.54;97697.01;4244093;82;21097;-90
2022/01/04 08:12:50;;;;;;;6.33;3.05;;;;;;;6.88;99.46;97699.36;4247240;82;21100;-90
2022/01/04 08:18:51;;;;;;;5.92;2.62;;;;;;;6.96;99.42;97687.36;4247953;82;21045;-90
2022/01/04 08:24:53;;;;;;;8.40;4.58;;;;;;;7.04;99.32;97672.62;4252979;82;21144;-88
2022/01/04 08:30:54;;;;;;;13.08;6.53;;;;;;;7.11;99.53;97665.86;4250663;82;21675;-89
2022/01/04 08:36:57;;;;;;;7.17;3.70;;;;;;;7.16;99.41;97650.50;4250650;82;21073;-89
2022/01/04 08:42:58;;;;;;;11.48;5.97;;;;;;;7.23;98.94;97638.28;4164743;84;21819;-90
2022/01/04 08:49:00;;;;;;;11.57;5.47;;;;;;;7.27;98.75;97624.09;4164025;84;21723;-90
2022/01/04 08:55:03;;;;;;;8.18;4.25;;;;;;;7.28;98.56;97620.22;4165428;84;21081;-89
2022/01/04 09:01:06;;;;;;;5.55;2.72;;;;;;;7.31;98.46;97600.39;4137199;84;22072;-88
2022/01/04 09:07:07;;;;;;;5.72;2.27;;;;;;;7.36;98.30;97592.61;4255120;82;21061;-92
2022/01/04 09:13:16;;;;;;;6.70;3.50;;;;;;;7.42;97.90;97576.69;4245723;82;21134;-89
2022/01/04 09:19:15;;;;;;;4.80;2.60;;;;;;;7.45;97.66;97567.74;4261168;82;21029;-89
2022/01/04 09:25:16;;;;;;;5.67;1.80;;;;;;;7.46;97.54;97551.02;4239506;82;21180;-93
2022/01/04 09:31:21;;;;;;;5.45;2.77;;;;;;;7.50;97.43;97529.24;4253524;82;20990;-89
2022/01/04 09:37:24;;;;;;;6.33;3.00;;;;;;;7.54;97.31;97510.94;4248748;82;21573;-89
2022/01/04 09:43:26;;;;;;;5.78;3.15;;;;;;;7.59;97.11;97497.73;4247932;82;21972;-90
2022/01/04 09:49:29;;;;;;;6.75;3.05;;;;;;;7.65;96.85;97486.63;4248757;82;21045;-91
2022/01/04 09:55:31;;;;;;;5.75;3.02;;;;;;;7.72;96.78;97477.67;4248967;82;22310;-89
2022/01/04 10:01:39;;;;;;;5.33;2.77;;;;;;;7.77;96.52;97462.27;4162198;84;21101;-91
2022/01/04 10:07:41;;;;;;;5.67;3.22;;;;;;;7.88;96.34;97446.67;4135290;85;21069;-92
2022/01/04 10:13:44;;;;;;;5.17;2.30;;;;;;;7.92;95.76;97420.21;4139445;85;21066;-93
2022/01/04 10:19:53;;;;;;;5.65;2.67;;;;;;;8.05;94.81;97414.49;4142897;85;21140;-88
2022/01/04 10:26:07;;;;;;;5.05;2.10;;;;;;;8.14;94.61;97414.86;4169575;84;21088;-88
2022/01/04 10:32:10;;;;;;;3.35;1.98;;;;;;;8.19;94.90;97410.34;4140757;85;21025;-89
2022/01/04 10:38:29;;;;;;;4.20;2.40;;;;;;;8.23;94.81;97411.15;4145053;85;21089;-89
2022/01/04 10:44:32;;;;;;;4.33;2.42;;;;;;;8.22;94.08;97393.22;4142400;84;21060;-88
2022/01/04 10:50:36;;;;;;;5.60;2.42;;;;;;;8.20;94.28;97388.74;4173740;84;21048;-89
2022/01/04 10:56:38;;;;;;;4.97;2.50;;;;;;;8.19;94.34;97378.23;4149024;85;21077;-89
2022/01/04 11:02:40;;;;;;;4.90;2.67;;;;;;;8.20;94.22;97368.30;4146966;85;21113;-90
2022/01/04 11:08:43;;;;;;;5.80;2.90;;;;;;;8.18;94.49;97358.95;4136141;85;21066;-90
2022/01/04 11:14:44;;;;;;;5.85;3.40;;;;;;;8.17;94.55;97350.02;4162139;84;21124;-90
2022/01/04 11:20:46;;;;;;;8.70;4.60;;;;;;;8.20;94.81;97343.77;4137359;85;21095;-89
2022/01/04 11:26:49;;;;;;;9.18;4.75;;;;;;;8.26;94.98;97338.69;4176565;84;21167;-89
2022/01/04 11:32:56;;;;;;;6.83;3.90;;;;;;;8.29;95.52;97331.86;4186511;84;21178;-91
2022/01/04 11:38:57;;;;;;;5.80;3.25;;;;;;;8.34;95.79;97317.81;4170818;84;21041;-89
2022/01/04 11:45:00;;;;;;;7.45;3.52;;;;;;;8.40;95.89;97305.88;4145288;85;21073;-90
2022/01/04 11:51:23;;;;;;;7.22;3.08;;;;;;;8.49;96.00;97300.77;4182009;84;21050;-90
2022/01/04 11:57:24;;;;;;;5.12;3.17;;;;;;;8.55;96.11;97280.82;4139965;84;21655;-90
2022/01/04 12:03:48;;;;;;;6.92;2.87;;;;;;;8.62;96.33;97266.35;4126446;84;21045;-89
2022/01/04 12:09:50;;;;;;;4.80;2.62;;;;;;;8.61;96.47;97261.51;4206531;83;20995;-89
2022/01/04 12:15:57;;;;;;;7.53;2.45;;;;;;;8.68;96.02;97263.38;4205527;83;21060;-91
2022/01/04 12:22:05;;;;;;;5.25;2.25;;;;;;;8.68;96.18;97243.70;4208449;83;21601;-90
2022/01/04 12:28:18;;;;;;;4.53;2.20;;;;;;;8.67;95.82;97207.28;4187489;83;21074;-91
2022/01/04 12:34:50;;;;;;;4.37;2.00;;;;;;;8.67;95.82;97207.28;4211818;83;21042;-93
2022/01/04 12:40:52;;;;;;;4.45;2.52;;;;;;;8.85;95.97;97203.77;4226346;83;21041;-90
2022/01/04 12:46:58;;;;;;;5.85;2.30;;;;;;;8.90;95.92;97186.38;4214486;83;21033;-90
2022/01/04 12:53:04;;;;;;;6.67;2.75;;;;;;;9.02;95.45;97172.19;4214312;83;20997;-88
2022/01/04 12:59:05;;;;;;;4.80;2.70;;;;;;;9.19;95.27;97159.52;4229076;82;21010;-89
2022/01/04 13:05:09;;;;;;;4.90;2.75;;;;;;;9.29;95.03;97144.95;4253640;82;21152;-88
2022/01/04 13:11:10;;;;;;;4.17;2.62;;;;;;;9.38;94.84;97125.51;4249543;82;21156;-89
2022/01/04 13:17:12;;;;;;;6.12;2.58;;;;;;;9.44;94.72;97114.91;4251563;82;21056;-90
2022/01/04 13:23:18;;;;;;;4.28;2.87;;;;;;;9.47;94.37;97113.47;4254618;82;22525;-89
2022/01/04 13:29:23;;;;;;;3.52;2.20;;;;;;;9.51;93.99;97103.87;4253978;82;21113;-91
2022/01/04 13:35:37;;;;;;;4.87;2.37;;;;;;;9.55;92.40;97103.24;4256841;82;21061;-91
2022/01/04 13:41:39;;;;;;;5.30;2.70;;;;;;;9.54;92.11;97093.48;4251495;82;21077;-90
2022/01/04 13:47:46;;;;;;;8.35;4.10;;;;;;;9.49;91.48;97058.44;4246754;82;21052;-90
2022/01/04 13:53:52;;;;;;;6.80;3.35;;;;;;;9.46;90.75;97046.39;4235015;82;21168;-88
2022/01/04 13:59:54;;;;;;;6.25;2.87;;;;;;;9.40;90.85;97039.86;4263143;82;21048;-89
2022/01/04 14:05:59;;;;;;;4.47;2.70;;;;;;;9.36;90.90;97026.84;4257090;82;21044;-89
2022/01/04 14:12:11;;;;;;;7.87;3.75;;;;;;;9.29;90.36;97024.23;4262567;82;21596;-90
2022/01/04 14:18:11;;;;;;;9.65;4.00;;;;;;;9.28;89.80;97004.95;4239782;83;21577;-91
2022/01/04 14:24:51;;;;;;;7.53;3.92;;;;;;;9.28;89.56;96991.88;4264199;83;21569;-90
2022/01/04 14:30:54;;;;;;;5.50;2.75;;;;;;;9.27;89.25;96993.83;4255249;81;21408;-90
2022/01/04 14:36:55;;;;;;;5.58;2.50;;;;;;;9.32;86.67;96970.73;4262759;82;21673;-89
2022/01/04 14:42:57;;;;;;;5.80;2.77;;;;;;;9.39;85.62;96961.86;4255614;83;21074;-91
2022/01/04 14:48:59;;;;;;;4.92;2.77;;;;;;;9.37;86.18;96947.06;4261244;83;21093;-90
2022/01/04 14:55:00;;;;;;;5.37;2.33;;;;;;;9.33;87.55;96943.63;4263525;82;21062;-90
2022/01/04 15:01:02;;;;;;;6.28;2.70;;;;;;;9.27;87.80;96954.86;4255794;83;21607;-90
2022/01/04 15:07:04;;;;;;;9.50;3.85;;;;;;;9.20;87.86;96937.98;4259636;83;21085;-91
2022/01/04 15:13:05;;;;;;;6.83;3.30;;;;;;;9.14;87.91;96936.14;4256472;83;21064;-90
2022/01/04 15:19:08;;;;;;;6.87;3.10;;;;;;;9.10;87.53;96922.55;4252595;83;21578;-92
2022/01/04 15:25:10;;;;;;;7.15;3.70;;;;;;;9.06;87.62;96923.20;4257076;82;21140;-89
2022/01/04 15:31:13;;;;;;;7.33;3.75;;;;;;;8.99;87.55;96919.21;4266284;82;21068;-90
2022/01/04 15:37:15;;;;;;;9.28;4.55;;;;;;;8.97;87.52;96912.63;4259114;82;21121;-90
2022/01/04 15:43:17;;;;;;;11.35;6.08;;;;;;;8.92;87.59;96896.14;4262069;82;21548;-94
2022/01/04 15:49:19;;;;;;;13.28;7.65;;;;;;;8.86;87.30;96895.08;4261133;81;21093;-91
2022/01/04 15:55:21;;;;;;;9.65;5.20;;;;;;;8.86;87.24;96869.73;4237419;83;21108;-89
2022/01/04 16:01:24;;;;;;;11.60;5.17;;;;;;;8.81;87.01;96862.80;4159744;84;21573;-90
2022/01/04 16:07:28;;;;;;;9.35;4.22;;;;;;;8.83;86.95;96859.04;4189399;84;21117;-91
2022/01/04 16:13:30;;;;;;;7.47;3.90;;;;;;;8.90;86.84;96854.06;4188173;84;21612;-91
2022/01/04 16:25:53;;;;;;;9.23;3.80;;;;;;;9.11;86.52;96850.38;4185234;84;21525;-89
2022/01/04 16:31:59;;;;;;;6.37;3.67;;;;;;;9.18;86.45;96848.91;4180848;83;21572;-89
2022/01/04 16:38:01;;;;;;;6.75;3.92;;;;;;;9.25;85.96;96827.54;4159531;84;21049;-90
2022/01/04 16:44:07;;;;;;;6.08;3.40;;;;;;;9.34;85.73;96842.77;4180739;84;21057;-91
2022/01/04 16:50:12;;;;;;;6.67;3.33;;;;;;;9.34;85.69;96829.13;4181414;84;21602;-92
2022/01/04 16:56:13;;;;;;;6.75;3.30;;;;;;;9.40;86.02;96837.78;4207194;82;21117;-89
2022/01/04 17:02:15;;;;;;;6.55;3.20;;;;;;;9.38;86.08;96831.96;4257599;82;21637;-89
2022/01/04 17:08:17;;;;;;;8.03;4.08;;;;;;;9.46;86.07;96834.73;4259522;82;21085;-91
2022/01/04 17:20:43;;;;;;;6.40;3.22;;;;;;;9.65;85.86;96807.87;4263031;82;21104;-89
2022/01/04 17:26:44;;;;;;;7.47;3.20;;;;;;;9.76;85.26;96810.54;4242191;82;21081;-92
2022/01/04 17:32:46;;;;;;;7.72;3.42;;;;;;;9.83;85.82;96795.97;4253285;82;22659;-90
2022/01/04 17:38:52;;;;;;;6.15;3.12;;;;;;;9.90;85.66;96793.10;4265465;82;21583;-91
2022/01/04 17:44:54;;;;;;;4.95;3.15;;;;;;;9.97;85.72;96795.08;4131516;82;9999994;-90
2022/01/04 17:50:56;;;;;;;6.47;3.47;;;;;;;10.05;85.25;96791.00;4249683;82;21097;-89
2022/01/04 17:56:58;;;;;;;6.42;3.22;;;;;;;10.03;85.56;96789.28;4249019;82;21433;-90
2022/01/04 18:03:03;;;;;;;9.38;3.62;;;;;;;10.14;83.79;96780.28;4256527;82;21092;-91
2022/01/04 18:09:05;;;;;;;7.50;3.15;;;;;;;10.14;85.04;96798.64;4251292;82;21064;-91
2022/01/04 18:15:10;;;;;;;9.18;3.12;;;;;;;10.18;84.82;96802.08;4246091;82;21026;-90
2022/01/04 18:21:14;;;;;;;6.10;3.42;;;;;;;10.12;84.72;96793.59;4250024;83;21688;-89
2022/01/04 18:27:19;;;;;;;7.00;3.85;;;;;;;10.15;84.65;96775.59;4250478;82;22461;-92
2022/01/04 18:33:27;;;;;;;7.80;3.40;;;;;;;10.17;84.69;96771.23;4251248;82;21366;-89
2022/01/04 18:39:28;;;;;;;6.95;3.50;;;;;;;10.16;84.74;96758.77;4257209;82;21588;-90
2022/01/04 18:45:31;;;;;;;6.55;3.33;;;;;;;10.23;84.73;96755.08;4132117;82;10000460;-91
2022/01/04 18:51:34;;;;;;;7.28;3.33;;;;;;;10.23;84.39;96755.85;4243537;82;21108;-90
2022/01/04 18:57:37;;;;;;;6.53;3.62;;;;;;;10.19;84.82;96756.55;4246154;82;22369;-92
2022/01/04 19:03:39;;;;;;;7.87;4.20;;;;;;;10.13;84.67;96760.95;4165873;84;21368;-91
2022/01/04 19:09:41;;;;;;;8.20;3.27;;;;;;;10.08;84.74;96771.64;4132579;85;21058;-89
2022/01/04 19:15:45;;;;;;;7.25;4.33;;;;;;;10.01;85.16;96752.03;4104583;85;21148;-89
2022/01/04 19:21:46;;;;;;;6.65;3.25;;;;;;;10.04;85.09;96758.62;4132320;85;21233;-90
2022/01/04 19:27:48;;;;;;;6.78;3.62;;;;;;;10.10;85.12;96760.44;4135158;85;21137;-89
2022/01/04 19:39:54;;;;;;;7.78;3.45;;;;;;;10.21;85.25;96753.38;4161706;84;21143;-90
2022/01/04 19:45:56;;;;;;;5.53;2.72;;;;;;;10.34;84.90;96752.27;4161417;84;22297;-89
2022/01/04 19:51:58;;;;;;;5.85;2.80;;;;;;;10.49;84.48;96756.20;4137269;85;21101;-89
2022/01/04 19:57:59;;;;;;;6.87;3.33;;;;;;;10.54;84.77;96754.33;4161683;84;21595;-90
2022/01/04 20:04:02;;;;;;;8.10;3.87;;;;;;;10.53;84.38;96741.08;4218187;82;21035;-90
2022/01/04 20:10:05;;;;;;;7.83;3.30;;;;;;;10.47;84.69;96744.94;4208540;83;21027;-90
2022/01/04 20:16:08;;;;;;;6.10;3.37;;;;;;;10.50;84.03;96754.24;4216896;83;21102;-92
2022/01/04 20:22:11;;;;;;;4.55;2.42;;;;;;;10.59;83.27;96753.03;4225065;83;21110;-90
2022/01/04 20:28:12;;;;;;;6.37;3.25;;;;;;;10.63;83.37;96744.91;4223701;83;21105;-90
2022/01/04 20:34:13;;;;;;;6.72;3.30;;;;;;;10.72;82.33;96745.69;4211403;83;21680;-89
2022/01/04 20:40:27;;;;;;;5.75;3.27;;;;;;;10.72;82.66;96745.09;4216882;83;21125;-91
2022/01/04 20:46:29;;;;;;;5.35;3.12;;;;;;;10.67;82.91;96737.98;4219359;83;21100;-89
2022/01/04 20:52:30;;;;;;;6.10;3.27;;;;;;;10.72;81.71;96732.00;4213505;83;21081;-90
2022/01/04 20:58:36;;;;;;;6.22;3.15;;;;;;;10.68;82.02;96738.92;4238728;82;21089;-90
2022/01/04 21:04:37;;;;;;;5.70;3.30;;;;;;;10.58;82.27;96741.34;4246335;82;21061;-91
2022/01/04 21:10:45;;;;;;;6.80;3.15;;;;;;;10.49;82.41;96752.09;4249018;82;21051;-90
2022/01/04 21:16:52;;;;;;;7.05;3.20;;;;;;;10.47;82.28;96770.14;4253947;82;21097;-90
2022/01/04 21:22:55;;;;;;;4.63;2.70;;;;;;;10.47;81.79;96779.13;4247708;82;21584;-91
2022/01/04 21:28:56;;;;;;;8.93;4.05;;;;;;;10.49;81.86;96791.01;4229300;82;21085;-90
2022/01/04 21:34:58;;;;;;;5.90;3.42;;;;;;;10.49;81.77;96798.59;4254836;82;21049;-91
2022/01/04 21:41:02;;;;;;;5.70;2.72;;;;;;;10.52;81.72;96813.41;4252644;82;21582;-90
2022/01/04 21:47:04;;;;;;;5.42;2.90;;;;;;;10.67;81.91;96790.75;4137633;82;10000274;-91
2022/01/04 21:53:05;;;;;;;8.98;3.22;;;;;;;10.69;82.44;96797.94;4254278;82;21062;-89
2022/01/04 21:59:06;;;;;;;5.87;2.80;;;;;;;10.62;82.76;96813.73;4253636;82;21072;-89
2022/01/04 22:05:09;;;;;;;5.58;2.72;;;;;;;10.56;82.92;96822.28;4245854;82;21050;-88
2022/01/04 22:11:10;;;;;;;6.58;2.83;;;;;;;10.65;82.37;96830.66;4254399;82;21046;-89
2022/01/04 22:17:14;;;;;;;6.47;2.80;;;;;;;10.73;82.66;96851.97;4252930;82;21638;-88
2022/01/04 22:23:16;;;;;;;4.90;2.30;;;;;;;10.79;81.91;96854.98;4256280;82;21021;-89
2022/01/04 22:29:17;;;;;;;6.28;2.33;;;;;;;10.83;82.22;96879.70;4258245;82;21393;-90
2022/01/04 22:35:20;;;;;;;4.75;2.85;;;;;;;10.83;82.62;96904.34;4251713;82;21081;-89
2022/01/04 22:41:21;;;;;;;8.20;3.37;;;;;;;10.75;83.13;96935.02;4251922;82;21056;-90
2022/01/04 22:47:23;;;;;;;9.03;4.25;;;;;;;10.53;83.66;96974.38;4246052;82;21166;-91
2022/01/04 22:53:24;;;;;;;7.10;3.55;;;;;;;10.22;84.43;96987.32;4258027;82;21056;-91
2022/01/04 22:59:26;;;;;;;5.22;2.50;;;;;;;9.80;84.95;97007.21;4251496;82;21350;-90
2022/01/04 23:05:27;;;;;;;4.25;2.27;;;;;;;9.38;85.59;97041.47;4245883;82;21065;-93
2022/01/04 23:11:29;;;;;;;3.85;2.10;;;;;;;9.07;86.36;97056.33;4250909;82;21098;-89
2022/01/04 23:17:34;;;;;;;5.20;3.22;;;;;;;8.81;86.70;97040.12;4249142;82;21584;-89
2022/01/04 23:23:35;;;;;;;7.20;3.58;;;;;;;8.64;87.45;97045.80;4250958;82;21093;-89
2022/01/04 23:29:36;;;;;;;6.60;3.62;;;;;;;8.55;88.07;97079.01;4255377;82;21898;-90
2022/01/04 23:35:40;;;;;;;7.42;3.45;;;;;;;8.47;88.27;97087.08;4252262;82;21082;-89
2022/01/04 23:41:43;;;;;;;6.08;3.35;;;;;;;8.34;88.73;97101.64;4245560;82;21014;-90
2022/01/04 23:47:45;;;;;;;6.55;4.40;;;;;;;8.23;89.26;97120.84;4248674;82;21093;-89
2022/01/04 23:53:46;;;;;;;7.28;4.22;;;;;;;8.12;89.78;97103.00;4254744;82;21084;-90
2022/01/04 23:59:48;;;;;;;6.12;4.22;;;;;;;7.97;90.37;97116.00;4241147;82;21501;-91
